首页
METAR-TAF:

METAR-TAF

机场 :

Edward F. Knapp State Airport

巴里 / 蒙彼利埃, 佛蒙特州, 美国

纬度: 44-12-17N, 经度: 072-33-58W, 海拔: 355米

当前天气观测

该预报发布于20分钟前的01:51 UTC
静风
温度 14°C
湿度 88%
气压 1012 hPa
能見度: 16.1公里
多云层高于9000英尺
阴天层高于11000英尺

METAR: KMPV 310151Z AUTO 00000KT 10SM BKN090 OVC110 14/12 A2989 RMK AO2 RAB16E48 SLP121 P0000 T01440117

时间: 22:11 (02:11 UTC)

预报

该预报发布于2小时和44分钟前的23:27 UTC
预报有效从31日的 00点(UTC)到 31日的 24点(UTC)
风速5节,风向多变
能見度: 10公里
多云层高于5000英尺
阴天层高于8000英尺
从 31日的 0100点(UTC)
风速3节,风向多变
能見度: 10公里
多云层高于7000英尺
附近有阵雨
从 31日的 0400点(UTC)
风速7节,风向西转西北
能見度: 10公里
多云层高于5000英尺
短暂存在
从 31日的 06点(UTC)到 31日的 10点(UTC)
多云层高于2100英尺
从 31日的 1000点(UTC)
风速9节,风向西北
能見度: 10公里
多云层高于3500英尺

TAF: KMPV 302327Z 3100/3124 VRB05KT P6SM BKN050 OVC080 FM310100 VRB03KT P6SM VCSH BKN070 FM310400 30007KT P6SM BKN050 TEMPO 3106/3110 BKN021 FM311000 31009KT P6SM BKN035

超过4000个机场的气象观测和天气预报(METAR&TAF报告)。

可查询的气象台以黄色和红色小点在地图上表示。

将鼠标移到小点上方,可查看气象台名称。

然后点击查看天气观测和预报。

如需切换地图:点击带黑十字的绿色按钮放大地图;点击带横线的绿色按钮缩小地图;或者点击绿色箭头查看邻近地区的地图。


METAR-TAF: